Time;durP1;ratioP1;P1;durP2;ratioP2;P2;SDS_P1;SDS_P2;PMS_P1;PMS_P2;Temp;Humidity;BMP_temperature;BMP_pressure;BME280_temperature;BME280_humidity;BME280_pressure;Samples;Min_cycle;Max_cycle;Signal;HPM_P1;HPM_P2
2023/01/24 00:01:59;;;;;;;;;;;25.90;99.90;;;;;;5092432;28;19924;-65
2023/01/24 00:04:26;;;;;;;;;;;25.90;99.90;;;;;;5090447;28;20383;-68
2023/01/24 00:06:53;;;;;;;;;;;25.90;99.90;;;;;;5089723;28;19977;-67
2023/01/24 00:09:19;;;;;;;;;;;25.90;99.90;;;;;;5089629;28;19919;-68
2023/01/24 00:11:46;;;;;;;;;;;25.90;99.90;;;;;;5091887;28;19916;-66
2023/01/24 00:14:12;;;;;;;;;;;26.10;99.90;;;;;;5088886;28;19955;-67
2023/01/24 00:16:39;;;;;;;;;;;26.00;99.90;;;;;;5090263;28;19955;-67
2023/01/24 00:19:06;;;;;;;;;;;26.10;99.90;;;;;;5090936;28;19986;-66
2023/01/24 00:21:32;;;;;;;;;;;26.20;99.90;;;;;;5088844;28;20015;-69
2023/01/24 00:23:59;;;;;;;;;;;26.30;99.90;;;;;;5092054;28;20436;-69
2023/01/24 00:26:25;;;;;;;;;;;26.30;99.90;;;;;;5089566;28;19915;-68
2023/01/24 00:28:52;;;;;;;;;;;26.50;99.90;;;;;;5087826;28;19908;-68
2023/01/24 00:31:19;;;;;;;;;;;26.60;99.90;;;;;;5092454;28;20420;-67
2023/01/24 00:33:45;;;;;;;;;;;26.70;99.90;;;;;;5091824;28;19951;-68
2023/01/24 00:36:12;;;;;;;;;;;26.70;99.90;;;;;;5087017;28;20003;-70
2023/01/24 00:38:39;;;;;;;;;;;26.60;99.90;;;;;;5090431;28;19919;-68
2023/01/24 00:41:06;;;;;;;;;;;26.60;99.90;;;;;;5091696;28;20376;-69
2023/01/24 00:43:32;;;;;;;;;;;26.80;99.90;;;;;;5088625;28;19916;-70
2023/01/24 00:45:59;;;;;;;;;;;26.80;99.90;;;;;;5091044;28;19967;-69
2023/01/24 00:48:26;;;;;;;;;;;26.80;99.90;;;;;;5088939;28;19908;-70
2023/01/24 00:50:53;;;;;;;;;;;26.90;99.90;;;;;;5091589;28;19919;-69
2023/01/24 00:53:20;;;;;;;;;;;27.10;99.90;;;;;;5091856;28;19912;-69
2023/01/24 00:55:47;;;;;;;;;;;27.10;99.90;;;;;;5090775;28;19909;-68
2023/01/24 00:58:14;;;;;;;;;;;27.00;99.90;;;;;;5088986;28;20365;-70
2023/01/24 01:00:40;;;;;;;;;;;27.10;99.90;;;;;;5091495;28;20414;-70
2023/01/24 01:03:10;;;;;;;;;;;27.20;99.80;;;;;;5091370;28;20110;-70
2023/01/24 01:05:36;;;;;;;;;;;27.40;99.70;;;;;;5090454;28;20008;-65
2023/01/24 01:08:03;;;;;;;;;;;27.60;99.40;;;;;;5088640;28;19958;-68
2023/01/24 01:10:30;;;;;;;;;;;27.70;99.30;;;;;;5091533;28;19912;-70
2023/01/24 01:12:56;;;;;;;;;;;27.70;98.70;;;;;;5091484;28;19916;-69
2023/01/24 01:15:23;;;;;;;;;;;27.80;98.90;;;;;;5090575;28;19909;-66
2023/01/24 01:17:50;;;;;;;;;;;27.90;98.80;;;;;;5089191;28;19912;-70
2023/01/24 01:20:16;;;;;;;;;;;28.10;99.00;;;;;;5090789;28;20373;-71
2023/01/24 01:22:43;;;;;;;;;;;28.20;98.70;;;;;;5091178;28;19971;-66
2023/01/24 01:25:10;;;;;;;;;;;28.40;99.20;;;;;;5090481;28;19958;-70
2023/01/24 01:27:36;;;;;;;;;;;28.40;98.80;;;;;;5091357;28;19977;-70
2023/01/24 01:30:03;;;;;;;;;;;28.40;98.40;;;;;;5082994;28;19955;-67
2023/01/24 01:32:30;;;;;;;;;;;28.40;98.00;;;;;;5091809;28;19916;-67
2023/01/24 01:34:56;;;;;;;;;;;28.40;98.40;;;;;;5084164;28;20347;-70
2023/01/24 01:37:24;;;;;;;;;;;28.50;98.70;;;;;;5072043;28;19943;-69
2023/01/24 01:39:50;;;;;;;;;;;28.70;98.30;;;;;;5071579;28;20007;-70
2023/01/24 01:42:17;;;;;;;;;;;28.80;97.60;;;;;;5071726;28;20011;-69
2023/01/24 01:44:47;;;;;;;;;;;28.70;98.10;;;;;;5082306;28;19995;-70
2023/01/24 01:47:14;;;;;;;;;;;28.90;97.70;;;;;;5091449;28;19908;-69
2023/01/24 01:49:43;;;;;;;;;;;28.90;97.40;;;;;;5092235;28;19939;-69
2023/01/24 01:52:09;;;;;;;;;;;29.00;97.30;;;;;;5092423;28;20337;-67
2023/01/24 01:54:38;;;;;;;;;;;29.00;97.00;;;;;;5078834;28;20009;-67
2023/01/24 01:57:11;;;;;;;;;;;29.00;97.30;;;;;;5071535;28;19938;-66
2023/01/24 01:59:44;;;;;;;;;;;29.10;97.10;;;;;;5071828;28;19913;-65
2023/01/24 02:02:11;;;;;;;;;;;29.30;97.40;;;;;;5071228;28;19921;-68
2023/01/24 02:04:40;;;;;;;;;;;29.60;96.40;;;;;;5071607;28;20305;-70
2023/01/24 02:07:45;;;;;;;;;;;29.60;96.00;;;;;;5082226;28;20408;-67
2023/01/24 02:10:12;;;;;;;;;;;29.30;96.90;;;;;;5068580;28;19909;-69
2023/01/24 02:12:41;;;;;;;;;;;29.50;96.70;;;;;;5065440;28;19913;-68
2023/01/24 02:18:03;;;;;;;;;;;29.80;95.90;;;;;;5071658;28;19916;-66
2023/01/24 02:20:43;;;;;;;;;;;29.90;96.60;;;;;;5071461;28;19912;-69
2023/01/24 02:23:19;;;;;;;;;;;29.50;96.30;;;;;;5071468;28;20003;-70
2023/01/24 02:25:48;;;;;;;;;;;29.70;97.30;;;;;;5071226;28;20284;-70
2023/01/24 02:28:15;;;;;;;;;;;29.70;96.70;;;;;;5071522;28;19913;-71
2023/01/24 02:30:42;;;;;;;;;;;29.70;96.00;;;;;;5071425;28;19909;-71
2023/01/24 02:33:13;;;;;;;;;;;29.70;95.70;;;;;;5074568;28;20383;-71
2023/01/24 02:35:40;;;;;;;;;;;29.80;96.10;;;;;;5075397;28;20007;-72
2023/01/24 02:38:12;;;;;;;;;;;30.00;95.60;;;;;;5075717;28;20273;-69
2023/01/24 02:40:38;;;;;;;;;;;30.20;95.70;;;;;;5075212;28;20427;-70
2023/01/24 02:43:06;;;;;;;;;;;30.50;95.30;;;;;;5075691;28;19916;-71
2023/01/24 02:45:34;;;;;;;;;;;30.40;95.10;;;;;;5075529;28;20364;-71
2023/01/24 02:48:00;;;;;;;;;;;30.50;94.40;;;;;;5075739;28;19909;-70
2023/01/24 02:50:28;;;;;;;;;;;30.30;94.70;;;;;;5075134;28;19913;-71
2023/01/24 02:58:26;;;;;;;;;;;30.90;94.50;;;;;;5062786;28;19909;-71
2023/01/24 03:00:53;;;;;;;;;;;31.20;94.20;;;;;;5074573;28;19924;-71
2023/01/24 03:03:20;;;;;;;;;;;31.20;93.40;;;;;;5074586;28;19909;-71
2023/01/24 03:05:56;;;;;;;;;;;31.20;93.50;;;;;;5074829;28;19909;-70
2023/01/24 03:08:26;;;;;;;;;;;31.20;93.40;;;;;;5074585;28;19940;-72
2023/01/24 03:10:53;;;;;;;;;;;31.40;92.80;;;;;;5074208;28;20530;-71
2023/01/24 03:35:19;;;;;;;;;;;34.50;86.10;;;;;;5073635;28;19928;-70
2023/01/24 03:40:30;;;;;;;;;;;36.50;83.50;;;;;;5079085;28;19919;-70
2023/01/24 03:42:57;;;;;;;;;;;36.20;82.70;;;;;;5080045;28;19927;-72
2023/01/24 03:45:28;;;;;;;;;;;36.60;81.30;;;;;;5086210;28;20364;-70
2023/01/24 03:47:56;;;;;;;;;;;37.30;80.50;;;;;;5090310;28;19916;-70
2023/01/24 03:53:18;;;;;;;;;;;37.70;77.70;;;;;;5088042;28;20017;-69
2023/01/24 03:55:44;;;;;;;;;;;37.60;78.10;;;;;;5090365;28;19916;-71
2023/01/24 03:58:12;;;;;;;;;;;38.60;77.00;;;;;;5091724;28;19908;-70
2023/01/24 04:00:39;;;;;;;;;;;38.50;75.70;;;;;;5091033;28;19919;-69
2023/01/24 04:03:06;;;;;;;;;;;38.60;75.90;;;;;;5084657;28;20274;-70
2023/01/24 04:05:33;;;;;;;;;;;38.80;73.80;;;;;;5085586;28;19916;-66
2023/01/24 04:08:00;;;;;;;;;;;37.90;76.30;;;;;;5084770;28;20280;-70
2023/01/24 04:10:26;;;;;;;;;;;37.90;76.00;;;;;;5088322;28;19919;-66
2023/01/24 04:12:54;;;;;;;;;;;38.20;75.00;;;;;;5085053;28;19922;-71
2023/01/24 04:15:25;;;;;;;;;;;38.80;74.50;;;;;;5089625;28;19916;-70
2023/01/24 04:17:56;;;;;;;;;;;38.00;75.80;;;;;;5091265;28;19912;-71
2023/01/24 04:20:22;;;;;;;;;;;37.30;76.20;;;;;;5089428;28;20276;-67
2023/01/24 04:22:49;;;;;;;;;;;38.20;76.20;;;;;;5088899;28;20372;-71
2023/01/24 04:25:16;;;;;;;;;;;38.30;74.60;;;;;;5088930;28;19957;-71
2023/01/24 04:27:42;;;;;;;;;;;37.80;75.00;;;;;;5090939;28;19920;-70
2023/01/24 04:30:10;;;;;;;;;;;37.70;77.20;;;;;;5090067;28;19916;-70
2023/01/24 04:32:37;;;;;;;;;;;37.80;75.30;;;;;;5091144;28;19909;-70
2023/01/24 04:35:04;;;;;;;;;;;37.80;74.90;;;;;;5075208;28;19921;-71
2023/01/24 04:37:31;;;;;;;;;;;37.80;75.90;;;;;;5072289;28;19913;-72
2023/01/24 04:39:57;;;;;;;;;;;37.80;75.60;;;;;;5082067;28;19912;-69
2023/01/24 04:42:24;;;;;;;;;;;37.50;75.40;;;;;;5091441;28;19927;-71
2023/01/24 04:44:51;;;;;;;;;;;37.40;75.40;;;;;;5084957;28;19919;-70
2023/01/24 04:47:17;;;;;;;;;;;37.40;77.30;;;;;;5091944;28;19934;-70
2023/01/24 04:49:44;;;;;;;;;;;38.20;75.40;;;;;;5081376;28;20030;-70
2023/01/24 04:52:14;;;;;;;;;;;37.40;74.70;;;;;;5080034;28;19918;-71
2023/01/24 04:54:40;;;;;;;;;;;36.30;77.40;;;;;;5080676;28;19908;-68
2023/01/24 04:57:08;;;;;;;;;;;37.10;78.00;;;;;;5090979;28;19958;-72
2023/01/24 04:59:34;;;;;;;;;;;38.50;74.60;;;;;;5091734;28;19952;-68
2023/01/24 05:02:01;;;;;;;;;;;37.70;75.80;;;;;;5087517;28;19966;-70
2023/01/24 05:04:28;;;;;;;;;;;37.90;74.80;;;;;;5072670;28;19958;-70
2023/01/24 05:06:54;;;;;;;;;;;36.90;75.30;;;;;;5083761;28;20622;-69
2023/01/24 05:09:21;;;;;;;;;;;37.00;75.60;;;;;;5076609;28;20026;-68
2023/01/24 05:11:48;;;;;;;;;;;37.20;75.80;;;;;;5074515;28;20266;-69
2023/01/24 05:14:14;;;;;;;;;;;38.10;72.70;;;;;;5080477;28;20316;-66
2023/01/24 05:16:41;;;;;;;;;;;37.60;74.20;;;;;;5086358;28;19912;-69
2023/01/24 05:19:08;;;;;;;;;;;38.10;73.00;;;;;;5089540;28;19947;-70
2023/01/24 05:21:34;;;;;;;;;;;38.50;73.10;;;;;;5081083;28;19924;-68
2023/01/24 05:24:01;;;;;;;;;;;38.60;72.80;;;;;;5082907;28;19908;-73
2023/01/24 05:26:28;;;;;;;;;;;39.50;72.60;;;;;;5088801;28;20360;-70
2023/01/24 05:28:55;;;;;;;;;;;38.40;72.80;;;;;;5082602;28;19916;-71
2023/01/24 05:31:22;;;;;;;;;;;37.50;73.50;;;;;;5083321;28;19916;-73
2023/01/24 05:33:48;;;;;;;;;;;36.40;75.40;;;;;;5079801;28;19916;-72
2023/01/24 05:36:17;;;;;;;;;;;35.90;76.10;;;;;;5074654;28;19920;-69
2023/01/24 05:38:43;;;;;;;;;;;35.80;76.40;;;;;;5090654;28;19919;-70
2023/01/24 05:41:11;;;;;;;;;;;36.80;74.60;;;;;;5083634;28;20052;-72
2023/01/24 05:43:38;;;;;;;;;;;37.30;73.50;;;;;;5079786;28;19912;-68
2023/01/24 05:46:06;;;;;;;;;;;36.60;73.80;;;;;;5090042;28;19916;-70
2023/01/24 05:48:33;;;;;;;;;;;35.30;76.40;;;;;;5088854;28;19923;-71
2023/01/24 05:51:01;;;;;;;;;;;36.10;74.30;;;;;;5083910;28;20404;-72
2023/01/24 05:53:28;;;;;;;;;;;36.70;73.40;;;;;;5089833;28;19912;-71
2023/01/24 05:55:58;;;;;;;;;;;36.90;72.60;;;;;;5078472;28;20315;-72
2023/01/24 05:58:29;;;;;;;;;;;35.90;73.70;;;;;;5090614;28;20063;-72
2023/01/24 06:00:56;;;;;;;;;;;34.80;76.30;;;;;;5086370;28;19951;-69
2023/01/24 06:03:23;;;;;;;;;;;34.40;78.20;;;;;;5086913;28;19916;-71
2023/01/24 06:05:50;;;;;;;;;;;34.60;78.10;;;;;;5070545;28;19908;-68
2023/01/24 06:08:17;;;;;;;;;;;34.90;78.40;;;;;;5078341;28;20345;-69
2023/01/24 06:10:44;;;;;;;;;;;35.70;77.50;;;;;;5089358;28;19912;-68
2023/01/24 06:13:11;;;;;;;;;;;35.80;77.40;;;;;;5078602;28;19927;-69
2023/01/24 06:15:38;;;;;;;;;;;36.00;76.80;;;;;;5085403;28;19944;-72
2023/01/24 06:18:05;;;;;;;;;;;35.70;77.10;;;;;;5090502;28;19912;-72
2023/01/24 06:20:32;;;;;;;;;;;35.60;77.00;;;;;;5088102;28;20262;-71
2023/01/24 06:23:06;;;;;;;;;;;34.90;77.90;;;;;;5082274;28;20011;-71
2023/01/24 06:25:33;;;;;;;;;;;34.20;78.90;;;;;;5077163;28;20364;-73
2023/01/24 06:28:00;;;;;;;;;;;33.40;81.40;;;;;;5086737;28;19966;-72
2023/01/24 06:30:27;;;;;;;;;;;33.10;82.60;;;;;;5084569;28;19923;-73
2023/01/24 06:33:09;;;;;;;;;;;32.30;85.60;;;;;;5075462;28;19966;-72
2023/01/24 06:35:43;;;;;;;;;;;31.60;85.80;;;;;;5084135;28;19928;-71
2023/01/24 06:38:20;;;;;;;;;;;31.50;85.90;;;;;;5089161;28;19916;-69
2023/01/24 06:40:48;;;;;;;;;;;31.30;86.40;;;;;;5091311;28;20308;-69
2023/01/24 06:43:15;;;;;;;;;;;31.30;86.80;;;;;;5088327;28;19912;-70
2023/01/24 06:45:41;;;;;;;;;;;31.10;87.50;;;;;;5090468;28;20272;-67
2023/01/24 06:48:08;;;;;;;;;;;30.80;88.50;;;;;;5086404;28;19958;-71
2023/01/24 06:50:35;;;;;;;;;;;30.50;88.60;;;;;;5086747;28;19912;-68
2023/01/24 06:53:02;;;;;;;;;;;30.20;88.20;;;;;;5091602;28;19955;-67
2023/01/24 06:55:28;;;;;;;;;;;30.10;88.90;;;;;;5089957;28;19912;-67
2023/01/24 06:57:55;;;;;;;;;;;29.60;90.00;;;;;;5090749;28;19918;-67
2023/01/24 07:00:22;;;;;;;;;;;29.10;91.00;;;;;;5092326;28;19927;-65
2023/01/24 07:02:56;;;;;;;;;;;28.90;91.90;;;;;;5090307;28;19959;-66
2023/01/24 07:05:23;;;;;;;;;;;29.20;92.50;;;;;;5089645;28;19968;-67
2023/01/24 07:07:50;;;;;;;;;;;29.70;91.50;;;;;;5085007;28;19920;-70
2023/01/24 07:10:16;;;;;;;;;;;29.70;92.00;;;;;;5070200;28;19908;-67
2023/01/24 07:12:43;;;;;;;;;;;29.60;91.90;;;;;;5070590;28;20539;-66
2023/01/24 07:15:10;;;;;;;;;;;29.30;92.40;;;;;;5070077;28;19940;-67
2023/01/24 07:17:37;;;;;;;;;;;29.30;92.60;;;;;;5076726;28;20361;-68
2023/01/24 07:20:04;;;;;;;;;;;29.50;92.60;;;;;;5095584;28;19908;-67
2023/01/24 07:22:30;;;;;;;;;;;29.70;92.30;;;;;;5095708;28;20384;-72
2023/01/24 07:24:57;;;;;;;;;;;29.90;92.00;;;;;;5095382;28;19908;-72
2023/01/24 07:27:24;;;;;;;;;;;30.00;91.50;;;;;;5092271;28;19959;-67
2023/01/24 07:29:51;;;;;;;;;;;29.50;92.00;;;;;;5075276;28;19909;-71
2023/01/24 07:32:18;;;;;;;;;;;29.00;92.90;;;;;;5073864;28;19931;-67
2023/01/24 07:34:44;;;;;;;;;;;28.60;93.80;;;;;;5090042;28;19920;-66
2023/01/24 07:37:11;;;;;;;;;;;28.50;94.10;;;;;;5094608;28;19969;-67
2023/01/24 07:39:38;;;;;;;;;;;28.30;94.30;;;;;;5075081;28;20392;-69
2023/01/24 07:42:04;;;;;;;;;;;28.40;94.10;;;;;;5074815;28;19967;-72
2023/01/24 07:44:31;;;;;;;;;;;28.20;93.90;;;;;;5075065;28;19908;-65
2023/01/24 07:46:57;;;;;;;;;;;27.90;94.60;;;;;;5076018;28;19908;-71
2023/01/24 07:49:24;;;;;;;;;;;28.00;94.90;;;;;;5094861;28;19912;-66
2023/01/24 07:51:51;;;;;;;;;;;27.90;95.40;;;;;;5095133;28;19962;-67
2023/01/24 07:54:19;;;;;;;;;;;27.60;95.90;;;;;;5094897;28;20583;-71
2023/01/24 07:56:46;;;;;;;;;;;27.40;96.40;;;;;;5094954;28;19977;-68
2023/01/24 07:59:13;;;;;;;;;;;27.30;96.90;;;;;;5092895;28;19938;-67
2023/01/24 08:01:40;;;;;;;;;;;27.10;97.40;;;;;;5081834;28;19928;-67
2023/01/24 08:04:07;;;;;;;;;;;27.10;97.70;;;;;;5074472;28;19912;-69
2023/01/24 08:06:33;;;;;;;;;;;27.00;97.80;;;;;;5074201;28;20418;-68
2023/01/24 08:09:00;;;;;;;;;;;26.80;98.20;;;;;;5094494;28;19981;-71
2023/01/24 08:11:27;;;;;;;;;;;26.80;98.40;;;;;;5094470;28;19916;-73
2023/01/24 08:13:54;;;;;;;;;;;26.80;98.90;;;;;;5094643;28;20013;-73
2023/01/24 08:16:25;;;;;;;;;;;26.70;99.40;;;;;;5094417;28;19908;-73
2023/01/24 08:18:52;;;;;;;;;;;26.60;99.60;;;;;;5093005;28;19912;-72
2023/01/24 08:21:19;;;;;;;;;;;26.50;99.90;;;;;;5094702;28;19927;-73
2023/01/24 08:23:45;;;;;;;;;;;26.50;99.90;;;;;;5094659;28;19915;-66
2023/01/24 08:26:12;;;;;;;;;;;26.30;99.90;;;;;;5094528;28;19908;-69
2023/01/24 08:28:39;;;;;;;;;;;26.30;99.90;;;;;;5074075;28;19908;-66
2023/01/24 08:31:05;;;;;;;;;;;26.20;99.90;;;;;;5073446;28;19920;-65
2023/01/24 08:33:37;;;;;;;;;;;26.00;99.90;;;;;;5073856;28;19995;-66
2023/01/24 08:36:04;;;;;;;;;;;25.80;99.90;;;;;;5072829;28;20276;-68
2023/01/24 08:38:31;;;;;;;;;;;25.70;99.90;;;;;;5090969;28;19912;-68
2023/01/24 08:40:58;;;;;;;;;;;25.70;99.90;;;;;;5093625;28;19931;-68
2023/01/24 08:43:29;;;;;;;;;;;25.70;99.90;;;;;;5093321;28;21328;-71
2023/01/24 08:45:55;;;;;;;;;;;25.60;99.90;;;;;;5094166;28;19908;-69
2023/01/24 08:48:22;;;;;;;;;;;25.60;99.90;;;;;;5074324;28;19913;-68
2023/01/24 08:50:49;;;;;;;;;;;25.60;99.90;;;;;;5073642;28;19909;-70
2023/01/24 08:53:15;;;;;;;;;;;25.50;99.90;;;;;;5073604;28;20349;-72
2023/01/24 08:55:42;;;;;;;;;;;25.50;99.90;;;;;;5086084;28;19908;-68
2023/01/24 08:58:09;;;;;;;;;;;25.40;99.90;;;;;;5075899;28;19930;-66
2023/01/24 09:00:36;;;;;;;;;;;25.40;99.90;;;;;;5073530;28;20288;-73
2023/01/24 09:03:02;;;;;;;;;;;25.30;99.90;;;;;;5073495;28;19924;-70
2023/01/24 09:05:30;;;;;;;;;;;25.20;99.90;;;;;;5073380;28;19908;-65
2023/01/24 09:07:57;;;;;;;;;;;25.20;99.90;;;;;;5091248;28;20280;-66
2023/01/24 09:10:23;;;;;;;;;;;25.30;99.90;;;;;;5093547;28;19912;-72
2023/01/24 09:12:51;;;;;;;;;;;25.30;99.90;;;;;;5093476;28;19908;-68
2023/01/24 09:15:17;;;;;;;;;;;25.30;99.90;;;;;;5093510;28;19915;-72
2023/01/24 09:17:44;;;;;;;;;;;25.30;99.90;;;;;;5077130;28;19973;-72
2023/01/24 09:20:11;;;;;;;;;;;25.10;99.90;;;;;;5073094;28;19908;-71
2023/01/24 09:22:38;;;;;;;;;;;25.20;99.90;;;;;;5078071;28;19920;-67
2023/01/24 09:25:07;;;;;;;;;;;25.10;99.90;;;;;;5093299;28;20446;-65
2023/01/24 09:27:34;;;;;;;;;;;25.10;99.90;;;;;;5076165;28;19912;-71
2023/01/24 09:30:01;;;;;;;;;;;25.20;99.90;;;;;;5073003;28;19913;-66
2023/01/24 09:32:29;;;;;;;;;;;25.20;99.90;;;;;;5079934;28;19908;-65
2023/01/24 09:34:55;;;;;;;;;;;25.20;99.90;;;;;;5075239;28;20042;-71
2023/01/24 09:37:22;;;;;;;;;;;25.20;99.90;;;;;;5086438;28;19918;-67
2023/01/24 09:39:49;;;;;;;;;;;25.10;99.90;;;;;;5092470;28;20318;-67
2023/01/24 09:42:47;;;;;;;;;;;25.10;99.90;;;;;;5089201;28;20006;-72
2023/01/24 09:45:24;;;;;;;;;;;25.20;99.90;;;;;;5059861;28;19956;-65
2023/01/24 09:48:01;;;;;;;;;;;25.30;99.90;;;;;;5072344;28;19951;-69
2023/01/24 09:50:37;;;;;;;;;;;25.40;99.90;;;;;;5077558;28;19913;-66
2023/01/24 09:53:04;;;;;;;;;;;25.50;99.90;;;;;;5090257;28;19926;-69
2023/01/24 09:55:40;;;;;;;;;;;25.60;99.90;;;;;;5091952;28;19908;-67
2023/01/24 09:58:28;;;;;;;;;;;25.60;99.90;;;;;;5092392;28;19930;-71
2023/01/24 10:00:55;;;;;;;;;;;25.60;99.90;;;;;;5092376;28;19915;-64
2023/01/24 10:03:23;;;;;;;;;;;25.70;99.90;;;;;;5090292;28;19924;-66
2023/01/24 10:05:52;;;;;;;;;;;25.60;99.90;;;;;;5092607;28;20266;-65
2023/01/24 10:08:18;;;;;;;;;;;25.60;99.90;;;;;;5092399;28;19908;-71
2023/01/24 10:10:54;;;;;;;;;;;25.50;99.90;;;;;;5091617;28;19915;-71
2023/01/24 10:13:30;;;;;;;;;;;25.50;99.90;;;;;;5081202;28;20288;-69
2023/01/24 10:16:17;;;;;;;;;;;25.50;99.90;;;;;;5072051;28;19915;-74
2023/01/24 10:18:44;;;;;;;;;;;25.50;99.90;;;;;;5090513;28;19912;-74
2023/01/24 10:21:20;;;;;;;;;;;25.40;99.90;;;;;;5091843;28;19912;-72
2023/01/24 10:23:53;;;;;;;;;;;25.30;99.90;;;;;;5077937;28;19956;-73
2023/01/24 10:26:32;;;;;;;;;;;25.20;99.90;;;;;;5071898;28;19912;-72
2023/01/24 10:29:06;;;;;;;;;;;25.00;99.90;;;;;;5075966;28;19965;-68
2023/01/24 10:31:39;;;;;;;;;;;25.00;99.90;;;;;;5091230;28;19916;-72
2023/01/24 10:34:27;;;;;;;;;;;24.90;99.90;;;;;;5073047;28;20358;-69
2023/01/24 10:37:00;;;;;;;;;;;24.90;99.90;;;;;;5072214;28;20393;-67
2023/01/24 10:39:27;;;;;;;;;;;24.90;99.90;;;;;;5073784;28;19913;-66
2023/01/24 10:41:54;;;;;;;;;;;24.90;99.90;;;;;;5091669;28;19926;-71
2023/01/24 10:44:23;;;;;;;;;;;24.80;99.90;;;;;;5071934;28;20083;-68
2023/01/24 10:46:50;;;;;;;;;;;24.80;99.90;;;;;;5072255;28;19909;-66
2023/01/24 10:49:23;;;;;;;;;;;24.60;99.90;;;;;;5076140;28;19909;-73
2023/01/24 10:52:08;;;;;;;;;;;24.40;99.90;;;;;;5099459;28;20334;-73
2023/01/24 10:55:01;;;;;;;;;;;24.10;99.90;;;;;;5086329;28;19913;-71
2023/01/24 10:57:39;;;;;;;;;;;23.70;99.90;;;;;;5073634;28;19912;-74
2023/01/24 11:00:15;;;;;;;;;;;23.50;99.90;;;;;;5078658;28;19912;-73
2023/01/24 11:02:44;;;;;;;;;;;23.20;99.90;;;;;;5093690;28;19927;-75
2023/01/24 11:05:13;;;;;;;;;;;23.10;99.90;;;;;;5093192;28;20399;-74
2023/01/24 11:07:45;;;;;;;;;;;23.10;99.90;;;;;;5093455;28;19916;-73
2023/01/24 11:10:12;;;;;;;;;;;23.00;99.90;;;;;;5079082;28;19913;-72
2023/01/24 11:12:46;;;;;;;;;;;23.00;99.90;;;;;;5093969;28;20336;-67
2023/01/24 11:15:17;;;;;;;;;;;22.90;99.90;;;;;;5094183;28;19912;-70
2023/01/24 11:17:44;;;;;;;;;;;23.00;99.90;;;;;;5093275;28;19911;-69
2023/01/24 11:20:28;;;;;;;;;;;23.00;99.90;;;;;;5086138;28;20280;-75
2023/01/24 11:23:04;;;;;;;;;;;22.90;99.90;;;;;;5083291;28;19920;-76
2023/01/24 11:25:31;;;;;;;;;;;22.90;99.90;;;;;;5094458;28;19915;-73
2023/01/24 11:28:00;;;;;;;;;;;22.90;99.90;;;;;;5094277;28;19948;-74
2023/01/24 11:30:33;;;;;;;;;;;22.90;99.90;;;;;;5084460;28;19931;-75
2023/01/24 11:33:02;;;;;;;;;;;22.90;99.90;;;;;;5084525;28;20015;-77
2023/01/24 11:35:34;;;;;;;;;;;22.80;99.90;;;;;;5093620;28;19924;-77
2023/01/24 11:38:01;;;;;;;;;;;22.60;99.90;;;;;;5092092;28;19920;-71
2023/01/24 11:40:38;;;;;;;;;;;22.50;99.90;;;;;;5093073;28;20253;-73
2023/01/24 11:43:13;;;;;;;;;;;22.50;99.90;;;;;;5104239;28;19978;-74
2023/01/24 11:45:46;;;;;;;;;;;22.40;99.90;;;;;;5103985;28;20381;-69
2023/01/24 11:48:20;;;;;;;;;;;22.30;99.90;;;;;;5108467;28;19923;-72
2023/01/24 11:51:09;;;;;;;;;;;22.20;99.90;;;;;;5105302;28;19908;-69
2023/01/24 11:53:36;;;;;;;;;;;22.10;99.90;;;;;;5101730;28;19912;-73
2023/01/24 11:56:21;;;;;;;;;;;22.00;99.90;;;;;;5094649;28;19912;-67
2023/01/24 11:59:02;;;;;;;;;;;21.90;99.90;;;;;;5099818;27;19935;-68
2023/01/24 12:01:43;;;;;;;;;;;21.90;99.90;;;;;;5087142;28;19923;-70
2023/01/24 12:04:16;;;;;;;;;;;21.80;99.90;;;;;;5093477;28;19966;-68
2023/01/24 12:06:52;;;;;;;;;;;21.70;99.90;;;;;;5083788;28;19912;-70
2023/01/24 12:09:26;;;;;;;;;;;21.60;99.90;;;;;;5072934;28;19912;-73
2023/01/24 12:12:28;;;;;;;;;;;21.50;99.90;;;;;;5088517;28;19923;-69
2023/01/24 12:14:55;;;;;;;;;;;21.40;99.90;;;;;;5032311;28;19909;-75
2023/01/24 12:17:38;;;;;;;;;;;21.20;99.90;;;;;;5065514;28;19909;-68
2023/01/24 12:20:22;;;;;;;;;;;21.10;99.90;;;;;;5078344;28;19909;-68
2023/01/24 12:22:53;;;;;;;;;;;21.10;99.90;;;;;;5082219;28;19920;-70
2023/01/24 12:25:19;;;;;;;;;;;21.10;99.90;;;;;;5073954;28;19915;-68
2023/01/24 12:27:47;;;;;;;;;;;21.10;99.90;;;;;;5073877;28;19909;-67
2023/01/24 12:30:45;;;;;;;;;;;21.00;99.90;;;;;;5080274;28;20033;-67
2023/01/24 12:33:17;;;;;;;;;;;21.00;99.90;;;;;;5061089;28;19958;-70
2023/01/24 12:35:49;;;;;;;;;;;21.00;99.90;;;;;;5073996;28;20387;-68
2023/01/24 12:38:34;;;;;;;;;;;21.20;99.90;;;;;;5074096;28;19961;-68
2023/01/24 12:41:21;;;;;;;;;;;21.20;99.90;;;;;;5086604;28;19916;-71
2023/01/24 12:43:54;;;;;;;;;;;21.30;99.90;;;;;;5073152;28;20020;-68
2023/01/24 12:46:29;;;;;;;;;;;21.30;99.90;;;;;;5073710;28;19908;-69
2023/01/24 12:49:14;;;;;;;;;;;21.30;99.90;;;;;;5073354;28;19908;-69
2023/01/24 12:52:06;;;;;;;;;;;21.30;99.90;;;;;;5085156;28;19913;-69
2023/01/24 12:54:33;;;;;;;;;;;21.40;99.90;;;;;;5052936;28;19909;-69
2023/01/24 12:57:02;;;;;;;;;;;21.40;99.90;;;;;;5072980;28;19915;-68
2023/01/24 12:59:30;;;;;;;;;;;21.40;99.90;;;;;;5076404;28;19957;-68
2023/01/24 13:02:15;;;;;;;;;;;21.40;99.90;;;;;;5083277;28;19960;-71
2023/01/24 13:04:42;;;;;;;;;;;21.40;99.90;;;;;;5072744;28;19915;-67
2023/01/24 13:07:09;;;;;;;;;;;21.40;99.90;;;;;;5073193;28;20314;-67
2023/01/24 13:09:35;;;;;;;;;;;21.30;99.90;;;;;;5072794;28;19908;-70
2023/01/24 13:12:03;;;;;;;;;;;21.20;99.90;;;;;;5084059;28;19912;-67
2023/01/24 13:14:33;;;;;;;;;;;21.10;99.90;;;;;;5073027;28;19959;-67
2023/01/24 13:17:18;;;;;;;;;;;21.10;99.90;;;;;;5073067;28;19912;-69
2023/01/24 13:19:54;;;;;;;;;;;21.00;99.90;;;;;;5075642;28;19909;-69
2023/01/24 13:22:32;;;;;;;;;;;21.00;99.90;;;;;;5081338;28;19926;-67
2023/01/24 13:25:01;;;;;;;;;;;21.10;99.90;;;;;;5072562;28;19912;-67
2023/01/24 13:27:36;;;;;;;;;;;21.00;99.90;;;;;;5076978;28;20011;-67
2023/01/24 13:30:17;;;;;;;;;;;21.10;99.90;;;;;;5091508;28;20307;-72
2023/01/24 13:32:44;;;;;;;;;;;21.10;99.90;;;;;;5086506;28;19916;-68
2023/01/24 13:35:28;;;;;;;;;;;20.90;99.90;;;;;;5092715;28;19924;-69
2023/01/24 13:37:56;;;;;;;;;;;20.80;99.90;;;;;;5092814;28;20015;-67
2023/01/24 13:40:26;;;;;;;;;;;20.80;99.90;;;;;;5092717;28;19961;-67
2023/01/24 13:42:53;;;;;;;;;;;20.80;99.90;;;;;;5076958;28;19927;-67
2023/01/24 13:45:25;;;;;;;;;;;20.80;99.90;;;;;;5073934;28;19912;-68
2023/01/24 13:47:56;;;;;;;;;;;20.80;99.90;;;;;;5086359;28;20007;-70
2023/01/24 13:50:23;;;;;;;;;;;20.80;99.90;;;;;;5092384;28;19904;-67
2023/01/24 13:52:56;;;;;;;;;;;20.70;99.90;;;;;;5077820;28;20007;-68
2023/01/24 13:55:23;;;;;;;;;;;20.80;99.90;;;;;;5077591;28;19919;-67
2023/01/24 13:58:08;;;;;;;;;;;20.80;99.90;;;;;;5092774;28;19912;-67
2023/01/24 14:00:45;;;;;;;;;;;20.70;99.90;;;;;;5092367;28;20264;-67
2023/01/24 14:03:15;;;;;;;;;;;20.70;99.90;;;;;;5074964;28;19963;-67
2023/01/24 14:06:00;;;;;;;;;;;20.70;99.90;;;;;;5072258;28;19923;-67
2023/01/24 14:08:27;;;;;;;;;;;20.60;99.90;;;;;;5072110;28;19923;-68
2023/01/24 14:10:54;;;;;;;;;;;20.70;99.90;;;;;;5084365;28;19919;-71
2023/01/24 14:13:39;;;;;;;;;;;20.60;99.90;;;;;;5090405;28;19913;-68
2023/01/24 14:16:08;;;;;;;;;;;20.60;99.90;;;;;;5091105;28;19914;-68
2023/01/24 14:18:41;;;;;;;;;;;20.60;99.90;;;;;;5092072;28;19994;-67
2023/01/24 14:21:15;;;;;;;;;;;20.50;99.90;;;;;;5092314;28;19912;-68
2023/01/24 14:23:42;;;;;;;;;;;20.50;99.90;;;;;;5072544;28;19917;-69
2023/01/24 14:26:14;;;;;;;;;;;20.50;99.90;;;;;;5071710;28;19909;-68
2023/01/24 14:28:44;;;;;;;;;;;20.50;99.90;;;;;;5074991;28;20324;-68
2023/01/24 14:31:30;;;;;;;;;;;20.50;99.90;;;;;;5089645;28;19930;-68
2023/01/24 14:34:12;;;;;;;;;;;20.50;99.90;;;;;;5076186;28;20292;-70
2023/01/24 14:36:39;;;;;;;;;;;20.40;99.90;;;;;;5077148;28;19919;-69
2023/01/24 14:39:22;;;;;;;;;;;20.40;99.90;;;;;;5076185;28;20330;-68
2023/01/24 14:42:00;;;;;;;;;;;20.40;99.90;;;;;;5095956;28;19985;-72
2023/01/24 14:44:30;;;;;;;;;;;20.40;99.90;;;;;;5096326;28;19915;-68
2023/01/24 14:46:57;;;;;;;;;;;20.40;99.90;;;;;;5095201;28;19995;-70
2023/01/24 14:49:29;;;;;;;;;;;20.40;99.90;;;;;;5096203;28;19912;-67
2023/01/24 14:51:55;;;;;;;;;;;20.50;99.90;;;;;;5075921;28;20266;-68
2023/01/24 14:54:23;;;;;;;;;;;20.50;99.90;;;;;;5075849;28;19908;-69
2023/01/24 14:56:50;;;;;;;;;;;20.50;99.90;;;;;;5078936;28;19928;-68
2023/01/24 14:59:20;;;;;;;;;;;20.50;99.90;;;;;;5096580;28;19930;-71
2023/01/24 15:01:52;;;;;;;;;;;20.60;99.90;;;;;;5095543;28;19964;-68
2023/01/24 15:04:23;;;;;;;;;;;20.60;99.90;;;;;;5095494;28;19915;-68
2023/01/24 15:07:12;;;;;;;;;;;20.60;99.90;;;;;;5076855;28;20277;-69
2023/01/24 15:09:40;;;;;;;;;;;20.50;99.90;;;;;;5095333;28;20309;-71